Time;durP1;ratioP1;P1;durP2;ratioP2;P2;SDS_P1;SDS_P2;PMS_P1;PMS_P2;Temp;Humidity;BMP_temperature;BMP_pressure;BME280_temperature;BME280_humidity;BME280_pressure;Samples;Min_cycle;Max_cycle;Signal;HPM_P1;HPM_P2
2022/10/05 00:00:11;;;;;;;160.40;76.80;;;21.20;76.80;;;;;;221139;1267;24216;-57
2022/10/05 00:05:34;;;;;;;151.40;75.40;;;21.20;76.80;;;;;;220331;1267;23508;-58
2022/10/05 00:10:42;;;;;;;153.60;74.30;;;21.20;76.60;;;;;;220334;1270;24262;-58
2022/10/05 00:15:46;;;;;;;155.40;73.70;;;21.20;76.60;;;;;;220521;1267;23185;-56
2022/10/05 00:20:50;;;;;;;149.30;72.40;;;21.20;77.30;;;;;;220465;1268;22542;-57
2022/10/05 00:25:56;;;;;;;143.80;68.10;;;21.20;76.50;;;;;;220392;1268;24218;-58
2022/10/05 00:30:59;;;;;;;138.70;68.20;;;21.20;76.40;;;;;;220631;1267;25245;-58
2022/10/05 00:36:06;;;;;;;141.20;67.60;;;21.10;76.60;;;;;;220407;1267;22564;-57
2022/10/05 00:41:39;;;;;;;135.90;68.50;;;21.10;76.50;;;;;;220317;1267;23580;-58
2022/10/05 00:47:31;;;;;;;131.70;64.50;;;21.10;77.00;;;;;;220253;1267;25234;-57
2022/10/05 00:53:14;;;;;;;126.40;63.90;;;21.10;76.60;;;;;;222785;1267;26551;-57
2022/10/05 00:58:33;;;;;;;122.50;63.80;;;21.10;76.80;;;;;;220213;1268;24223;-59
2022/10/05 01:03:59;;;;;;;127.20;64.20;;;21.10;76.90;;;;;;220307;1267;22552;-61
2022/10/05 01:09:14;;;;;;;110.70;58.10;;;21.10;76.60;;;;;;220517;1267;27651;-58
2022/10/05 01:14:23;;;;;;;117.40;59.40;;;21.00;76.50;;;;;;220435;1267;24217;-58
2022/10/05 01:20:10;;;;;;;105.20;57.30;;;21.00;76.40;;;;;;220590;1268;25543;-57
2022/10/05 01:25:22;;;;;;;110.10;54.40;;;21.00;76.60;;;;;;220738;1267;22543;-58
2022/10/05 01:30:32;;;;;;;110.10;54.40;;;21.00;76.40;;;;;;220209;1267;23947;-59
2022/10/05 01:36:09;;;;;;;105.90;55.40;;;20.90;76.70;;;;;;220660;1267;25353;-57
2022/10/05 01:41:35;;;;;;;106.70;55.90;;;20.90;76.30;;;;;;220543;1267;22802;-57
2022/10/05 01:47:26;;;;;;;100.60;52.90;;;20.90;76.20;;;;;;220409;1267;25242;-57
2022/10/05 01:52:45;;;;;;;101.30;53.90;;;20.90;76.20;;;;;;220109;1268;24222;-58
2022/10/05 01:58:09;;;;;;;90.20;48.20;;;21.00;76.10;;;;;;220378;1268;22622;-59
2022/10/05 02:03:20;;;;;;;80.60;42.40;;;21.10;76.30;;;;;;220440;1268;24216;-57
2022/10/05 02:08:33;;;;;;;75.90;40.20;;;21.30;75.00;;;;;;220535;1267;26542;-59
2022/10/05 02:13:42;;;;;;;67.20;37.90;;;21.50;74.60;;;;;;220385;1270;24282;-59
2022/10/05 02:18:55;;;;;;;59.50;35.60;;;21.60;73.80;;;;;;220458;1268;22719;-57
2022/10/05 02:24:09;;;;;;;55.40;32.10;;;21.70;73.40;;;;;;220412;1268;24306;-60
2022/10/05 02:29:17;;;;;;;53.60;31.40;;;21.80;73.30;;;;;;220244;1268;25260;-57
2022/10/05 02:34:29;;;;;;;56.80;32.70;;;21.80;73.40;;;;;;220370;1267;25292;-58
2022/10/05 02:40:18;;;;;;;58.80;32.30;;;21.70;73.20;;;;;;220590;1267;23046;-59
2022/10/05 02:45:35;;;;;;;54.30;32.00;;;21.70;73.20;;;;;;220007;1267;22701;-57
2022/10/05 02:51:00;;;;;;;56.00;31.90;;;21.70;73.30;;;;;;220529;1268;22546;-58
2022/10/05 02:56:28;;;;;;;52.90;32.30;;;21.70;73.40;;;;;;220205;1267;22522;-57
2022/10/05 03:01:50;;;;;;;53.60;31.30;;;21.60;73.40;;;;;;220446;1267;22685;-58
2022/10/05 03:07:08;;;;;;;50.80;30.90;;;21.60;73.30;;;;;;220606;1267;24319;-58
2022/10/05 03:12:24;;;;;;;55.10;31.70;;;21.60;73.20;;;;;;220408;1267;23989;-57
2022/10/05 03:17:36;;;;;;;51.50;30.30;;;21.60;73.40;;;;;;220373;1267;22532;-58
2022/10/05 03:22:49;;;;;;;53.00;30.50;;;21.60;73.60;;;;;;220648;1267;23009;-59
2022/10/05 03:28:24;;;;;;;54.90;32.10;;;21.60;73.50;;;;;;220648;1267;22534;-58
2022/10/05 03:33:47;;;;;;;48.80;29.20;;;21.50;73.50;;;;;;220472;1267;22550;-57
2022/10/05 03:39:21;;;;;;;50.80;31.10;;;21.50;73.50;;;;;;220481;1267;24195;-57
2022/10/05 03:44:54;;;;;;;49.30;29.70;;;21.50;73.80;;;;;;220418;1267;25258;-58
2022/10/05 03:50:15;;;;;;;46.80;28.60;;;21.50;73.60;;;;;;220615;1267;23153;-58
2022/10/05 03:55:25;;;;;;;47.90;29.40;;;21.50;73.50;;;;;;220610;1267;25233;-58
2022/10/05 04:00:31;;;;;;;43.00;27.50;;;21.50;73.50;;;;;;220383;1267;24233;-58
2022/10/05 04:05:58;;;;;;;45.60;27.20;;;21.50;73.80;;;;;;220721;1267;24253;-57
2022/10/05 04:11:21;;;;;;;42.20;26.00;;;21.50;73.50;;;;;;220328;1267;24391;-59
2022/10/05 04:16:34;;;;;;;43.90;26.50;;;21.50;73.50;;;;;;220701;1267;22566;-58
2022/10/05 04:21:46;;;;;;;38.90;25.70;;;21.50;73.40;;;;;;220392;1267;22547;-60
2022/10/05 04:26:54;;;;;;;45.20;26.40;;;21.50;73.40;;;;;;220429;1267;25969;-56
2022/10/05 04:32:23;;;;;;;37.30;24.00;;;21.50;73.60;;;;;;220432;1267;22672;-58
2022/10/05 04:37:34;;;;;;;41.30;25.60;;;21.50;73.40;;;;;;220493;1267;22689;-59
2022/10/05 04:43:14;;;;;;;40.00;24.60;;;21.50;73.40;;;;;;220296;1267;22791;-60
2022/10/05 04:48:43;;;;;;;37.00;23.70;;;21.50;73.30;;;;;;220284;1267;24297;-59
2022/10/05 04:54:17;;;;;;;37.90;23.70;;;21.50;73.20;;;;;;220170;1267;22574;-59
2022/10/05 04:59:44;;;;;;;34.90;22.50;;;21.50;73.10;;;;;;220159;1267;22577;-56
2022/10/05 05:05:15;;;;;;;39.30;23.00;;;21.50;73.20;;;;;;220427;1267;24169;-58
2022/10/05 05:10:46;;;;;;;31.90;21.80;;;21.50;73.40;;;;;;220451;1267;22541;-57
2022/10/05 05:16:07;;;;;;;34.00;21.60;;;21.50;73.00;;;;;;220530;1267;22543;-61
2022/10/05 05:21:59;;;;;;;33.70;21.40;;;21.50;72.90;;;;;;220581;1267;25225;-58
2022/10/05 05:27:50;;;;;;;27.90;18.20;;;21.50;72.90;;;;;;220115;1267;23966;-58
2022/10/05 05:33:18;;;;;;;35.60;21.20;;;21.50;73.30;;;;;;220849;1267;22480;-57
2022/10/05 05:38:43;;;;;;;35.70;20.90;;;21.50;72.90;;;;;;220674;1267;24277;-58
2022/10/05 05:44:26;;;;;;;32.30;20.50;;;21.40;73.00;;;;;;220292;1270;25310;-59
2022/10/05 05:49:57;;;;;;;34.70;21.50;;;21.50;73.60;;;;;;220410;1268;22542;-59
2022/10/05 05:55:33;;;;;;;30.20;18.60;;;21.60;74.20;;;;;;219960;1267;255276;-59
2022/10/05 06:00:43;;;;;;;36.30;20.90;;;21.60;75.00;;;;;;220479;1267;22550;-60
2022/10/05 06:06:00;;;;;;;33.30;20.70;;;21.60;74.60;;;;;;220320;1267;24375;-58
2022/10/05 06:11:26;;;;;;;36.70;21.50;;;21.60;75.10;;;;;;220468;1267;22547;-57
2022/10/05 06:16:39;;;;;;;33.50;20.20;;;21.60;75.20;;;;;;220380;1267;22544;-56
2022/10/05 06:21:46;;;;;;;32.70;19.70;;;21.60;74.90;;;;;;221090;1267;22699;-57
2022/10/05 06:27:08;;;;;;;35.60;19.30;;;21.60;74.70;;;;;;220417;1267;25319;-58
2022/10/05 06:32:41;;;;;;;27.00;18.70;;;21.60;74.60;;;;;;220253;1270;24260;-58
2022/10/05 06:38:01;;;;;;;29.40;18.80;;;21.60;74.70;;;;;;219943;1268;22540;-56
2022/10/05 06:43:33;;;;;;;27.20;17.90;;;21.60;74.40;;;;;;220439;1267;25506;-59
2022/10/05 06:49:28;;;;;;;29.90;17.90;;;21.60;74.30;;;;;;220469;1267;22676;-56
2022/10/05 06:55:17;;;;;;;27.90;18.30;;;21.60;74.20;;;;;;220581;1267;22547;-58
2022/10/05 07:00:31;;;;;;;23.60;16.80;;;21.60;74.10;;;;;;220615;1267;22591;-58
2022/10/05 07:05:38;;;;;;;22.50;16.10;;;21.70;74.00;;;;;;220506;1267;25363;-58
2022/10/05 07:11:04;;;;;;;23.00;15.70;;;21.70;74.10;;;;;;220387;1267;22549;-58
2022/10/05 07:16:35;;;;;;;28.80;14.40;;;21.80;74.00;;;;;;220586;1267;22561;-60
2022/10/05 07:21:52;;;;;;;25.90;15.10;;;21.90;73.60;;;;;;220320;1267;27282;-56
2022/10/05 07:27:02;;;;;;;27.80;15.30;;;21.90;73.90;;;;;;220971;1267;22553;-60
2022/10/05 07:32:27;;;;;;;22.40;14.40;;;21.90;74.20;;;;;;220274;1268;24225;-59
2022/10/05 07:37:53;;;;;;;24.80;14.90;;;21.90;74.00;;;;;;220792;1267;25294;-59
2022/10/05 07:43:13;;;;;;;21.60;14.70;;;21.90;74.30;;;;;;220477;1267;22547;-58
2022/10/05 07:48:23;;;;;;;19.10;13.80;;;22.00;74.00;;;;;;220700;1267;25335;-59
2022/10/05 07:53:51;;;;;;;;;;;22.00;73.70;;;;;;220679;1269;22717;-55
2022/10/05 07:59:06;;;;;;;20.50;13.20;;;22.00;73.60;;;;;;220437;1267;24667;-57
2022/10/05 08:04:18;;;;;;;21.30;12.50;;;22.10;73.20;;;;;;220562;1267;23932;-57
2022/10/05 08:09:34;;;;;;;19.60;12.10;;;22.10;73.50;;;;;;220865;1267;25233;-55
2022/10/05 08:14:51;;;;;;;22.40;12.50;;;22.10;73.30;;;;;;220750;1267;25351;-57
2022/10/05 08:20:02;;;;;;;20.20;12.60;;;22.20;73.60;;;;;;220368;1268;25396;-58
2022/10/05 08:25:16;;;;;;;26.10;13.20;;;22.10;74.70;;;;;;220367;1267;22569;-59
2022/10/05 08:30:20;;;;;;;23.30;12.90;;;22.10;74.90;;;;;;220420;1268;25301;-57
2022/10/05 08:35:32;;;;;;;21.80;12.50;;;22.00;75.00;;;;;;220283;1268;25375;-57
2022/10/05 08:40:45;;;;;;;29.80;12.50;;;22.00;74.90;;;;;;220539;1268;22550;-61
2022/10/05 08:45:48;;;;;;;23.30;12.10;;;22.00;75.20;;;;;;220527;1267;24236;-57
2022/10/05 08:51:06;;;;;;;18.30;12.70;;;21.90;75.40;;;;;;220382;1267;24737;-59
2022/10/05 08:56:19;;;;;;;20.40;11.30;;;22.10;75.00;;;;;;220457;1267;23029;-60
2022/10/05 09:01:54;;;;;;;25.20;12.00;;;22.20;74.90;;;;;;220378;1270;22644;-49
2022/10/05 09:07:08;;;;;;;19.50;12.50;;;22.10;75.00;;;;;;220423;1270;22529;-49
2022/10/05 09:12:47;;;;;;;22.20;11.70;;;22.20;74.50;;;;;;220516;1267;22531;-52
2022/10/05 09:18:29;;;;;;;17.20;10.90;;;22.20;74.40;;;;;;220266;1267;25392;-49
2022/10/05 09:23:43;;;;;;;17.10;11.70;;;22.20;74.80;;;;;;220850;1267;25281;-50
2022/10/05 09:29:28;;;;;;;23.40;11.50;;;22.20;74.70;;;;;;219927;1270;24426;-53
2022/10/05 09:35:26;;;;;;;28.20;10.60;;;22.20;74.90;;;;;;220584;1267;22778;-49
2022/10/05 09:41:15;;;;;;;17.50;11.20;;;22.20;74.90;;;;;;219866;1267;22525;-48
2022/10/05 09:46:32;;;;;;;18.50;10.80;;;22.20;74.30;;;;;;220825;1267;22788;-51
2022/10/05 09:52:05;;;;;;;15.20;9.90;;;22.20;74.30;;;;;;220753;1267;25197;-52
2022/10/05 09:57:24;;;;;;;18.80;10.50;;;22.20;74.30;;;;;;220752;1270;24254;-54
2022/10/05 10:02:37;;;;;;;17.30;9.90;;;22.20;74.20;;;;;;220224;1267;24208;-58
2022/10/05 10:08:04;;;;;;;15.30;9.80;;;22.20;74.40;;;;;;220898;1267;22544;-57
2022/10/05 10:13:33;;;;;;;15.10;10.00;;;22.20;74.00;;;;;;220077;1269;22635;-56
2022/10/05 10:19:11;;;;;;;14.30;9.50;;;22.20;74.20;;;;;;220298;1267;25245;-51
2022/10/05 10:24:40;;;;;;;15.30;9.10;;;22.20;74.00;;;;;;220682;1267;26515;-52
2022/10/05 10:30:02;;;;;;;15.20;9.00;;;22.20;74.20;;;;;;220595;1267;25122;-52
2022/10/05 10:35:18;;;;;;;13.30;8.70;;;22.20;73.90;;;;;;220786;1267;22751;-51
2022/10/05 10:40:33;;;;;;;13.90;8.80;;;22.30;73.90;;;;;;220418;1270;22565;-49
2022/10/05 10:46:05;;;;;;;13.40;8.10;;;22.30;73.70;;;;;;220411;1270;22725;-52
2022/10/05 10:51:25;;;;;;;13.60;8.50;;;22.30;73.70;;;;;;220556;1267;25280;-49
2022/10/05 10:56:57;;;;;;;11.10;8.00;;;22.40;74.00;;;;;;219975;1270;25536;-54
2022/10/05 11:02:20;;;;;;;14.80;8.20;;;22.50;73.60;;;;;;220536;1267;24943;-51
2022/10/05 11:07:39;;;;;;;11.80;7.50;;;22.50;73.60;;;;;;220281;1266;23950;-56
2022/10/05 11:13:20;;;;;;;15.50;7.90;;;22.70;73.90;;;;;;220392;1267;24321;-52
2022/10/05 11:18:29;;;;;;;11.90;7.70;;;22.70;73.40;;;;;;221076;1267;25311;-49
2022/10/05 11:24:10;;;;;;;13.10;7.80;;;22.80;73.60;;;;;;220547;1267;22808;-49
2022/10/05 11:29:25;;;;;;;10.40;7.70;;;22.90;73.60;;;;;;220760;1267;24241;-47
2022/10/05 11:34:54;;;;;;;9.10;6.50;;;23.00;74.00;;;;;;220516;1267;24307;-56
2022/10/05 11:40:41;;;;;;;11.80;7.30;;;23.10;73.00;;;;;;220241;1267;22694;-53
2022/10/05 11:45:59;;;;;;;11.30;7.10;;;23.20;73.00;;;;;;220613;1267;25333;-52
2022/10/05 11:51:40;;;;;;;12.20;7.50;;;23.30;73.30;;;;;;220448;1267;25525;-50
2022/10/05 11:57:17;;;;;;;16.50;7.00;;;23.50;72.50;;;;;;220895;1267;24304;-51
2022/10/05 12:02:48;;;;;;;13.60;7.00;;;23.70;71.70;;;;;;220609;1267;22535;-50
2022/10/05 12:07:58;;;;;;;11.30;6.60;;;23.80;71.40;;;;;;220367;1267;24061;-50
2022/10/05 12:13:21;;;;;;;16.30;7.20;;;23.70;71.50;;;;;;220146;1267;22628;-51
2022/10/05 12:18:31;;;;;;;13.00;6.70;;;23.80;72.40;;;;;;220127;1268;22531;-50
2022/10/05 12:23:37;;;;;;;14.70;7.20;;;23.70;72.00;;;;;;220176;1267;22531;-54
2022/10/05 12:29:02;;;;;;;14.60;6.80;;;23.70;72.90;;;;;;220280;1267;24224;-51
2022/10/05 12:34:16;;;;;;;15.40;6.80;;;23.70;72.80;;;;;;220329;1267;25543;-54
2022/10/05 12:39:35;;;;;;;14.50;7.10;;;23.70;73.00;;;;;;220128;1267;24752;-53
2022/10/05 12:45:09;;;;;;;21.70;6.70;;;23.80;73.30;;;;;;220135;1270;25357;-56
2022/10/05 12:50:40;;;;;;;11.20;5.80;;;23.80;73.00;;;;;;220223;1267;24220;-55
2022/10/05 12:55:53;;;;;;;9.00;5.90;;;23.80;73.30;;;;;;220362;1267;25163;-52
2022/10/05 13:01:04;;;;;;;11.50;6.80;;;23.70;73.10;;;;;;220312;1267;22548;-49
2022/10/05 13:06:44;;;;;;;12.80;6.10;;;23.80;73.10;;;;;;220139;1270;25402;-54
2022/10/05 13:12:02;;;;;;;11.90;5.70;;;23.80;72.90;;;;;;220578;1270;25315;-54
2022/10/05 13:17:22;;;;;;;9.90;6.10;;;23.80;71.80;;;;;;220573;1267;24856;-55
2022/10/05 13:22:38;;;;;;;21.70;8.50;;;23.90;71.50;;;;;;220115;1269;22538;-53
2022/10/05 13:28:16;;;;;;;16.80;6.50;;;24.00;72.40;;;;;;220210;1271;22775;-53
2022/10/05 13:33:20;;;;;;;10.80;5.70;;;24.10;71.90;;;;;;220401;1270;22622;-55
2022/10/05 13:38:33;;;;;;;14.60;5.90;;;24.00;71.10;;;;;;220468;1268;25724;-49
2022/10/05 13:44:19;;;;;;;13.60;6.00;;;23.90;71.50;;;;;;220430;1267;24227;-51
2022/10/05 13:49:28;;;;;;;11.20;5.20;;;23.80;71.00;;;;;;220390;1267;24074;-49
2022/10/05 13:55:13;;;;;;;16.50;5.50;;;23.80;71.90;;;;;;220281;1271;22553;-49
2022/10/05 14:00:21;;;;;;;18.70;5.70;;;23.80;71.20;;;;;;220200;1270;22643;-54
2022/10/05 14:05:34;;;;;;;12.60;4.90;;;23.70;71.00;;;;;;220181;1270;22553;-51
2022/10/05 14:10:44;;;;;;;12.70;5.00;;;23.70;71.10;;;;;;220255;1267;24289;-53
2022/10/05 14:16:11;;;;;;;9.50;4.50;;;23.60;71.20;;;;;;221057;1270;22560;-50
2022/10/05 14:21:48;;;;;;;13.90;4.80;;;23.60;71.20;;;;;;220567;1268;25981;-51
2022/10/05 14:26:55;;;;;;;12.60;4.80;;;23.50;71.00;;;;;;220412;1267;22531;-53
2022/10/05 14:32:21;;;;;;;12.20;4.70;;;23.60;71.10;;;;;;220325;1271;25489;-55
2022/10/05 14:37:51;;;;;;;12.50;5.10;;;23.50;71.20;;;;;;220395;1269;23990;-49
2022/10/05 14:43:19;;;;;;;8.50;4.30;;;23.50;71.40;;;;;;220457;1270;22552;-51
2022/10/05 14:48:48;;;;;;;14.30;6.50;;;23.40;71.10;;;;;;220378;1267;24222;-52
2022/10/05 14:54:13;;;;;;;13.20;4.70;;;23.40;72.20;;;;;;220792;1267;22694;-53
2022/10/05 14:59:37;;;;;;;9.60;4.80;;;23.40;73.10;;;;;;220453;1267;24151;-49
2022/10/05 15:05:02;;;;;;;13.70;4.50;;;23.40;73.40;;;;;;220321;1268;22571;-53
2022/10/05 15:10:48;;;;;;;14.50;4.80;;;23.40;73.00;;;;;;220492;1268;24203;-52
2022/10/05 15:16:02;;;;;;;7.90;4.80;;;23.40;72.70;;;;;;220324;1270;22535;-50
2022/10/05 15:21:22;;;;;;;7.20;4.60;;;23.40;72.50;;;;;;220492;1267;22558;-50
2022/10/05 15:26:53;;;;;;;7.70;4.60;;;23.40;72.30;;;;;;220406;1268;22543;-51
2022/10/05 15:32:19;;;;;;;9.20;4.70;;;23.40;72.30;;;;;;220446;1268;23734;-50
2022/10/05 15:37:42;;;;;;;8.50;4.90;;;23.30;72.50;;;;;;220481;1268;24320;-53
2022/10/05 15:42:52;;;;;;;8.60;4.70;;;23.30;72.40;;;;;;220567;1270;24225;-48
2022/10/05 15:48:18;;;;;;;6.50;3.90;;;23.30;72.00;;;;;;220757;1268;25771;-51
2022/10/05 15:53:42;;;;;;;12.00;4.00;;;23.20;72.20;;;;;;220392;1268;22699;-54
2022/10/05 15:58:55;;;;;;;7.20;4.40;;;23.20;72.00;;;;;;220646;1269;22543;-52
2022/10/05 16:04:14;;;;;;;5.70;3.70;;;23.20;71.80;;;;;;220607;1268;22553;-49
2022/10/05 16:09:35;;;;;;;7.50;4.10;;;23.10;71.80;;;;;;220278;1268;25050;-50
2022/10/05 16:15:05;;;;;;;8.50;4.40;;;23.10;71.80;;;;;;220432;1268;22574;-51
2022/10/05 16:20:27;;;;;;;7.50;4.50;;;23.10;71.70;;;;;;220759;1268;24211;-49
2022/10/05 16:25:57;;;;;;;7.00;4.10;;;23.10;71.60;;;;;;220805;1268;22688;-50
2022/10/05 16:31:36;;;;;;;6.70;4.40;;;23.00;71.50;;;;;;220480;1268;25327;-51
2022/10/05 16:37:08;;;;;;;7.60;3.90;;;23.10;72.00;;;;;;220546;1268;22544;-48
2022/10/05 16:42:45;;;;;;;7.30;4.10;;;23.00;71.50;;;;;;220721;1268;22658;-50
2022/10/05 16:48:29;;;;;;;7.60;4.40;;;23.00;71.00;;;;;;220314;1268;23472;-53
2022/10/05 16:53:40;;;;;;;7.20;3.70;;;23.00;71.40;;;;;;220419;1268;25275;-53
2022/10/05 16:59:16;;;;;;;6.00;3.70;;;23.00;71.40;;;;;;220242;1268;24646;-48
2022/10/05 17:04:47;;;;;;;6.00;4.20;;;22.90;71.50;;;;;;220461;1268;25518;-50
2022/10/05 17:10:34;;;;;;;6.30;3.60;;;22.90;71.80;;;;;;220331;1268;25233;-51
2022/10/05 17:16:08;;;;;;;5.80;3.60;;;22.90;71.30;;;;;;220583;1268;24566;-51
2022/10/05 17:21:33;;;;;;;8.60;3.70;;;22.90;71.40;;;;;;220367;1268;24248;-52
2022/10/05 17:26:55;;;;;;;7.20;3.70;;;22.80;71.20;;;;;;220303;1268;25200;-51
2022/10/05 17:32:10;;;;;;;5.50;3.80;;;22.80;71.20;;;;;;220437;1268;23997;-48
2022/10/05 17:37:33;;;;;;;5.70;4.10;;;22.80;71.70;;;;;;220339;1268;22533;-53
2022/10/05 17:42:40;;;;;;;7.50;3.40;;;22.80;71.30;;;;;;220763;1268;25490;-50
2022/10/05 17:48:07;;;;;;;5.50;3.60;;;22.80;71.30;;;;;;220384;1268;22554;-52
2022/10/05 17:59:11;;;;;;;7.30;3.30;;;22.70;71.20;;;;;;220745;1267;22619;-53
2022/10/05 18:04:33;;;;;;;6.10;3.40;;;22.70;71.20;;;;;;220754;1267;25673;-52
2022/10/05 18:09:58;;;;;;;8.50;3.80;;;22.70;71.20;;;;;;220726;1267;22551;-50
2022/10/05 18:15:11;;;;;;;5.80;3.60;;;22.70;71.20;;;;;;220547;1268;23906;-49
2022/10/05 18:20:23;;;;;;;7.50;3.00;;;22.60;71.30;;;;;;220884;1268;22599;-50
2022/10/05 18:25:53;;;;;;;5.10;3.20;;;22.60;71.10;;;;;;220743;1267;24298;-49
2022/10/05 18:31:23;;;;;;;5.70;3.40;;;22.60;71.00;;;;;;220543;1268;22598;-49
2022/10/05 18:36:50;;;;;;;5.50;3.40;;;22.60;71.00;;;;;;220359;1268;24221;-50
2022/10/05 18:42:25;;;;;;;4.70;2.80;;;22.60;71.00;;;;;;220813;1267;22697;-48
2022/10/05 18:48:11;;;;;;;5.00;3.10;;;22.60;70.80;;;;;;220695;1268;26593;-47
2022/10/05 18:53:41;;;;;;;4.20;2.90;;;22.50;70.70;;;;;;220318;1267;25345;-52
2022/10/05 18:59:38;;;;;;;4.90;3.10;;;22.50;71.20;;;;;;220877;1267;25489;-51
2022/10/05 19:05:04;;;;;;;5.60;3.20;;;22.50;70.90;;;;;;220573;1267;22651;-50
2022/10/05 19:10:41;;;;;;;4.60;2.90;;;22.50;70.90;;;;;;220851;1268;25602;-50
2022/10/05 19:16:17;;;;;;;5.30;2.90;;;22.50;70.80;;;;;;220390;1268;23431;-49
2022/10/05 19:21:52;;;;;;;7.00;3.20;;;22.50;70.80;;;;;;220458;1266;22553;-48
2022/10/05 19:27:14;;;;;;;4.60;2.60;;;22.50;70.70;;;;;;220453;1267;24223;-53
2022/10/05 19:32:51;;;;;;;4.60;2.80;;;22.40;71.10;;;;;;220432;1269;22592;-50
2022/10/05 19:38:28;;;;;;;4.80;3.00;;;22.40;70.80;;;;;;220514;1268;22712;-50
2022/10/05 19:43:34;;;;;;;4.20;3.00;;;22.40;70.80;;;;;;220581;1268;22557;-51
2022/10/05 19:48:44;;;;;;;3.70;2.30;;;22.40;70.60;;;;;;220475;1267;24475;-48
2022/10/05 19:53:50;;;;;;;4.30;2.50;;;22.40;70.80;;;;;;220572;1268;25258;-49
2022/10/05 19:58:58;;;;;;;4.00;2.80;;;22.30;70.70;;;;;;220378;1267;23216;-51
2022/10/05 20:04:04;;;;;;;4.30;2.90;;;22.30;70.60;;;;;;220562;1267;25307;-49
2022/10/05 20:09:20;;;;;;;4.70;3.20;;;22.30;70.90;;;;;;220402;1267;22548;-49
2022/10/05 20:14:32;;;;;;;4.00;2.60;;;22.30;71.20;;;;;;220526;1267;24344;-50
2022/10/05 20:25:16;;;;;;;3.40;2.70;;;22.30;70.60;;;;;;220344;1267;22741;-49
2022/10/05 20:30:31;;;;;;;4.90;2.80;;;22.20;70.50;;;;;;220459;1267;22740;-52
2022/10/05 20:35:34;;;;;;;4.70;2.90;;;22.20;70.00;;;;;;220731;1267;22535;-50
2022/10/05 20:40:38;;;;;;;4.50;2.90;;;22.20;70.50;;;;;;220249;1268;25242;-48
2022/10/05 20:45:43;;;;;;;4.00;2.70;;;22.20;70.50;;;;;;220806;1267;22594;-49
2022/10/05 20:50:46;;;;;;;4.40;3.00;;;22.20;70.50;;;;;;220786;1267;22619;-51
2022/10/05 20:55:50;;;;;;;3.70;2.80;;;22.20;70.60;;;;;;220868;1267;22585;-50
2022/10/05 21:01:29;;;;;;;;;;;;;;;;;;;;;
2022/10/05 21:06:37;;;;;;;4.40;2.90;;;22.10;70.80;;;;;;220732;1267;22847;-50
2022/10/05 21:11:55;;;;;;;5.40;3.20;;;22.10;70.40;;;;;;220497;1267;22688;-51
2022/10/05 21:17:00;;;;;;;3.60;2.80;;;22.10;70.80;;;;;;220670;1268;25366;-49
2022/10/05 21:22:08;;;;;;;4.60;3.10;;;22.10;70.60;;;;;;220994;1267;22983;-51
2022/10/05 21:27:12;;;;;;;3.90;3.20;;;22.00;70.40;;;;;;220968;1267;22566;-53
2022/10/05 21:32:15;;;;;;;3.90;2.80;;;22.00;70.40;;;;;;220579;1267;24074;-52
2022/10/05 21:37:19;;;;;;;4.40;2.90;;;22.00;70.40;;;;;;220400;1268;25606;-50
2022/10/05 21:42:23;;;;;;;4.60;2.90;;;22.00;70.30;;;;;;220865;1267;23038;-49
2022/10/05 21:47:29;;;;;;;4.70;2.90;;;22.00;70.40;;;;;;220605;1267;24441;-50
2022/10/05 21:52:34;;;;;;;4.00;2.70;;;22.00;70.30;;;;;;220467;1267;22540;-49
2022/10/05 21:57:40;;;;;;;3.80;2.50;;;22.00;70.30;;;;;;220796;1267;22728;-51
2022/10/05 22:02:44;;;;;;;4.00;2.60;;;22.00;70.30;;;;;;220689;1267;26485;-49
2022/10/05 22:07:50;;;;;;;4.00;2.40;;;21.90;70.90;;;;;;220570;1267;22795;-51
2022/10/05 22:12:59;;;;;;;4.40;2.60;;;21.90;70.20;;;;;;220847;1267;22570;-48
2022/10/05 22:18:03;;;;;;;4.20;2.80;;;21.90;70.30;;;;;;220557;1267;22546;-52
2022/10/05 22:23:07;;;;;;;5.00;2.90;;;21.90;70.30;;;;;;220297;1267;22550;-51
2022/10/05 22:28:14;;;;;;;4.80;2.80;;;21.90;70.20;;;;;;220305;1267;22540;-51
2022/10/05 22:33:20;;;;;;;5.40;3.10;;;21.90;70.20;;;;;;220361;1267;22528;-49
2022/10/05 22:38:29;;;;;;;4.00;3.00;;;21.90;70.20;;;;;;220357;1267;24396;-52
2022/10/05 22:43:34;;;;;;;5.20;3.30;;;21.90;70.20;;;;;;220336;1267;25367;-48
2022/10/05 22:48:39;;;;;;;3.80;2.80;;;21.80;70.40;;;;;;220293;1267;22540;-52
2022/10/05 22:53:43;;;;;;;4.10;2.70;;;21.80;70.20;;;;;;220286;1267;25235;-52
2022/10/05 22:58:47;;;;;;;3.70;2.60;;;21.80;70.20;;;;;;220382;1267;25335;-48
2022/10/05 23:03:51;;;;;;;4.30;2.70;;;21.80;70.40;;;;;;220781;1267;22544;-48
2022/10/05 23:08:54;;;;;;;4.00;2.80;;;21.80;70.10;;;;;;220710;1267;22748;-51
2022/10/05 23:13:59;;;;;;;3.70;2.50;;;21.80;70.20;;;;;;220498;1267;22551;-50
2022/10/05 23:19:02;;;;;;;4.20;3.10;;;21.80;70.10;;;;;;220780;1267;24070;-50
2022/10/05 23:24:06;;;;;;;4.10;2.80;;;21.70;70.40;;;;;;220516;1267;22547;-51
2022/10/05 23:29:13;;;;;;;5.10;2.80;;;21.70;70.10;;;;;;220485;1267;24056;-48
2022/10/05 23:34:19;;;;;;;3.90;2.70;;;21.70;70.50;;;;;;220255;1267;23910;-50
2022/10/05 23:39:23;;;;;;;4.60;3.20;;;21.70;70.50;;;;;;220258;1268;25247;-48
2022/10/05 23:44:26;;;;;;;4.60;2.80;;;21.70;70.10;;;;;;220485;1267;24144;-53
2022/10/05 23:49:30;;;;;;;3.70;2.50;;;21.70;70.10;;;;;;220478;1267;25194;-48
2022/10/05 23:54:33;;;;;;;4.20;3.10;;;21.70;70.00;;;;;;220878;1266;22563;-52
2022/10/05 23:59:36;;;;;;;3.80;2.70;;;21.60;70.00;;;;;;220822;1267;22528;-52
